Time;durP1;ratioP1;P1;durP2;ratioP2;P2;SDS_P1;SDS_P2;PMS_P1;PMS_P2;Temp;Humidity;BMP_temperature;BMP_pressure;BME280_temperature;BME280_humidity;BME280_pressure;Samples;Min_cycle;Max_cycle;Signal;HPM_P1;HPM_P2
2022/02/02 00:05:18;;;;;;;8.20;3.70;;;;;;;-0.09;96.89;96861.55;219242;1274;22582;-70
2022/02/02 00:24:51;;;;;;;;;;;;;;;;;;;;;
2022/02/02 00:30:02;;;;;;;7.30;4.20;;;;;;;0.03;96.85;96858.36;219898;1275;22570;-69
2022/02/02 00:36:02;;;;;;;;;;;;;;;;;;;;;
2022/02/02 00:42:07;;;;;;;6.50;3.30;;;;;;;0.08;96.71;96858.77;220187;1274;24243;-71
2022/02/02 00:48:26;;;;;;;5.20;2.10;;;;;;;0.14;96.89;96858.59;220226;1274;22619;-71
2022/02/02 01:01:08;;;;;;;2.20;1.10;;;;;;;0.30;96.85;96866.13;219916;1274;25306;-69
2022/02/02 01:19:43;;;;;;;5.40;2.60;;;;;;;0.41;96.69;96870.84;219559;1277;22684;-70
2022/02/02 01:31:59;;;;;;;5.10;4.10;;;;;;;0.36;96.31;96867.16;219877;1274;22556;-70
2022/02/02 01:37:28;;;;;;;;;;;;;;;;;;;;;
2022/02/02 01:43:46;;;;;;;;;;;;;;;;;;;;;
2022/02/02 01:55:29;;;;;;;3.60;1.90;;;;;;;0.51;96.57;96871.80;218854;1277;22719;-70
2022/02/02 02:01:08;;;;;;;1.30;1.00;;;;;;;0.56;96.46;96868.83;220159;1274;24155;-70
2022/02/02 02:07:44;;;;;;;2.40;1.00;;;;;;;0.67;96.31;96882.96;219968;1274;23935;-67
2022/02/02 02:27:19;;;;;;;1.20;0.60;;;;;;;0.87;96.02;96875.08;219306;1274;22707;-70
2022/02/02 02:40:18;;;;;;;1.30;0.60;;;;;;;0.99;95.91;96882.60;218854;1274;22667;-70
2022/02/02 02:57:16;;;;;;;1.00;0.90;;;;;;;1.14;95.82;96881.92;219794;1274;22550;-70
2022/02/02 03:50:38;;;;;;;0.70;0.30;;;;;;;1.42;94.37;96928.66;218682;1274;24285;-70
2022/02/02 03:56:43;;;;;;;0.80;0.30;;;;;;;1.53;94.40;96926.75;219985;1274;22562;-69
2022/02/02 04:07:50;;;;;;;1.50;0.60;;;;;;;1.76;94.55;96931.27;219274;1274;25510;-70
2022/02/02 04:13:29;;;;;;;0.70;0.70;;;;;;;1.79;94.13;96929.52;218824;1277;22717;-69
2022/02/02 05:19:16;;;;;;;1.70;0.60;;;;;;;1.88;92.00;96958.33;219946;1275;22707;-71
2022/02/02 05:51:42;;;;;;;1.50;0.70;;;;;;;1.75;91.78;96994.02;218803;1275;25305;-70
2022/02/02 05:57:22;;;;;;;2.20;0.90;;;;;;;1.76;91.99;96994.37;220076;1274;22647;-71
2022/02/02 06:03:16;;;;;;;;;;;;;;;;;;;;;
2022/02/02 06:09:20;;;;;;;1.80;0.70;;;;;;;1.75;91.82;96994.06;218834;1274;22560;-70
2022/02/02 06:22:05;;;;;;;;;;;;;;;;;;;;;
2022/02/02 06:28:04;;;;;;;5.30;1.20;;;;;;;1.74;91.86;97012.39;219108;1274;25327;-69
2022/02/02 06:33:18;;;;;;;3.40;1.20;;;;;;;1.77;91.85;97016.77;219122;1274;22596;-71
2022/02/02 06:38:45;;;;;;;4.00;1.20;;;;;;;1.80;91.89;97028.52;219059;1274;24317;-70
2022/02/02 06:43:58;;;;;;;3.60;0.90;;;;;;;1.86;91.91;97043.84;219878;1274;24329;-71
2022/02/02 06:49:04;;;;;;;5.60;1.20;;;;;;;1.89;91.87;97043.30;219569;1274;22618;-69
2022/02/02 06:54:19;;;;;;;5.70;2.10;;;;;;;1.92;91.94;97051.10;218442;1275;22608;-69
2022/02/02 07:10:45;;;;;;;3.20;1.50;;;;;;;1.96;91.55;97070.88;218391;1274;26604;-70
2022/02/02 07:16:26;;;;;;;7.10;1.60;;;;;;;2.02;91.53;97077.64;218929;1274;22715;-70
2022/02/02 07:33:31;;;;;;;6.20;2.60;;;;;;;2.05;91.37;97097.30;218946;1277;22585;-69
2022/02/02 07:39:08;;;;;;;5.40;1.60;;;;;;;2.07;91.23;97098.50;220278;1275;22569;-70
2022/02/02 07:44:36;;;;;;;4.10;1.50;;;;;;;2.14;91.10;97096.59;220150;1276;25392;-70
2022/02/02 07:49:48;;;;;;;2.80;1.10;;;;;;;2.20;90.99;97097.83;220113;1277;23306;-70
2022/02/02 07:54:56;;;;;;;3.60;1.80;;;;;;;2.29;90.99;97100.19;220323;1276;22553;-71
2022/02/02 08:00:16;;;;;;;4.60;1.70;;;;;;;2.34;90.75;97110.05;220589;1275;22570;-69
2022/02/02 08:05:19;;;;;;;5.40;1.80;;;;;;;2.34;90.36;97106.83;220035;1275;24410;-69
2022/02/02 08:10:38;;;;;;;4.50;1.70;;;;;;;2.32;90.33;97108.47;218524;1277;22544;-69
2022/02/02 08:16:14;;;;;;;4.00;1.40;;;;;;;2.39;90.46;97118.46;218495;1275;24289;-69
2022/02/02 08:21:17;;;;;;;7.30;2.00;;;;;;;2.56;90.77;97121.45;216639;1275;2758609;-68
2022/02/02 08:26:21;;;;;;;4.30;1.50;;;;;;;2.76;90.54;97129.39;218317;1277;22541;-69
2022/02/02 08:31:39;;;;;;;3.70;1.40;;;;;;;2.89;90.05;97122.98;217776;1277;24328;-69
2022/02/02 08:36:45;;;;;;;4.80;1.60;;;;;;;2.96;89.65;97126.80;218338;1277;22957;-69
2022/02/02 08:41:56;;;;;;;4.10;1.60;;;;;;;3.02;89.39;97138.27;218074;1277;25327;-70
2022/02/02 08:47:17;;;;;;;3.70;1.80;;;;;;;3.06;89.24;97147.80;218344;1276;25325;-70
2022/02/02 08:52:51;;;;;;;4.00;1.60;;;;;;;3.06;88.78;97158.70;218303;1276;25355;-68
2022/02/02 09:09:17;;;;;;;4.80;1.80;;;;;;;3.11;88.36;97181.89;218485;1277;24908;-71
2022/02/02 09:20:10;;;;;;;3.60;1.90;;;;;;;3.23;87.58;97200.84;220479;1274;24289;-69
2022/02/02 09:25:16;;;;;;;5.50;1.90;;;;;;;3.25;87.63;97206.48;218488;1275;22947;-69
2022/02/02 09:36:17;;;;;;;5.60;2.10;;;;;;;3.33;87.29;97226.73;220723;1274;22542;-70
2022/02/02 09:46:45;;;;;;;7.20;2.30;;;;;;;3.49;87.25;97228.49;218553;1274;22658;-69
2022/02/02 09:52:38;;;;;;;7.70;1.80;;;;;;;3.57;87.15;97224.96;218455;1274;25434;-70
2022/02/02 10:08:48;;;;;;;7.70;3.10;;;;;;;3.62;86.69;97226.14;220250;1274;25492;-70
2022/02/02 10:14:19;;;;;;;5.60;2.70;;;;;;;3.63;86.46;97240.65;220298;1274;22591;-69
2022/02/02 10:19:32;;;;;;;4.10;1.90;;;;;;;3.56;85.56;97245.89;220209;1274;22695;-71
2022/02/02 10:24:53;;;;;;;5.40;2.20;;;;;;;3.53;85.97;97240.85;220271;1274;22544;-70
2022/02/02 10:30:12;;;;;;;3.40;2.00;;;;;;;3.52;85.85;97242.81;220400;1274;24762;-70
2022/02/02 10:35:38;;;;;;;6.00;1.90;;;;;;;3.61;85.95;97244.59;220343;1274;22556;-70
2022/02/02 10:41:33;;;;;;;4.60;2.10;;;;;;;3.64;85.74;97236.98;219773;1277;23158;-71
2022/02/02 10:47:14;;;;;;;5.10;2.30;;;;;;;3.63;85.51;97250.55;220062;1275;24275;-71
2022/02/02 10:52:40;;;;;;;5.10;2.00;;;;;;;3.59;85.40;97262.98;220365;1274;22707;-71
2022/02/02 11:08:40;;;;;;;5.70;2.00;;;;;;;3.96;84.61;97265.94;220525;1274;25397;-70
2022/02/02 11:13:52;;;;;;;3.80;2.20;;;;;;;4.02;84.31;97270.45;218701;1274;22701;-70
2022/02/02 11:19:27;;;;;;;4.50;1.70;;;;;;;4.11;84.48;97272.55;218760;1274;24224;-70
2022/02/02 11:25:04;;;;;;;;;;;;;;;;;;;;;
2022/02/02 11:30:25;;;;;;;3.90;1.70;;;;;;;4.57;84.87;97271.63;220583;1274;25325;-70
2022/02/02 11:46:53;;;;;;;8.50;2.60;;;;;;;4.34;83.68;97276.21;220110;1274;23098;-72
2022/02/02 11:52:02;;;;;;;4.70;2.20;;;;;;;4.21;83.47;97278.91;220242;1274;22786;-72
2022/02/02 11:57:42;;;;;;;3.00;1.40;;;;;;;4.08;83.08;97289.55;220643;1274;22551;-72
2022/02/02 12:09:30;;;;;;;5.40;1.80;;;;;;;3.96;82.58;97297.11;219785;1274;22562;-71
2022/02/02 13:05:05;;;;;;;4.50;1.30;;;;;;;5.22;75.39;97331.54;220390;1274;24247;-72
2022/02/02 13:10:20;;;;;;;;;;;;;;;;;;;;;
2022/02/02 13:16:21;;;;;;;4.10;1.50;;;;;;;5.43;74.46;97319.81;220301;1274;25517;-71
2022/02/02 13:22:19;;;;;;;4.50;1.40;;;;;;;5.69;74.50;97325.70;220063;1274;22583;-71
2022/02/02 13:27:36;;;;;;;2.20;1.10;;;;;;;5.74;73.24;97356.60;220247;1274;22730;-71
2022/02/02 13:32:53;;;;;;;6.90;1.80;;;;;;;5.34;73.75;97398.01;220316;1274;22545;-70
2022/02/02 13:38:58;;;;;;;;;;;;;;;;;;;;;
2022/02/02 13:59:16;;;;;;;;;;;;;;;;;;;;;
2022/02/02 14:25:49;;;;;;;4.40;2.30;;;;;;;2.41;84.11;97497.58;219883;1277;22605;-73
2022/02/02 14:35:49;;;;;;;7.80;3.10;;;;;;;2.31;86.26;97533.63;220397;1274;25106;-72
2022/02/02 14:42:08;;;;;;;5.40;3.00;;;;;;;2.30;86.31;97541.81;220550;1274;25058;-72
2022/02/02 14:47:47;;;;;;;;;;;;;;;;;;;;;
2022/02/02 14:53:52;;;;;;;5.10;2.50;;;;;;;2.27;86.86;97566.75;220617;1274;25328;-73
2022/02/02 15:05:52;;;;;;;7.70;2.40;;;;;;;2.24;87.64;97582.10;220427;1274;22563;-74
2022/02/02 15:29:39;;;;;;;5.80;2.50;;;;;;;2.29;89.12;97640.71;220656;1274;24308;-72
2022/02/02 15:35:04;;;;;;;8.20;2.90;;;;;;;2.31;89.41;97652.13;220879;1274;23209;-72
2022/02/02 15:40:14;;;;;;;3.80;1.90;;;;;;;2.31;89.63;97670.90;220745;1274;22541;-74
2022/02/02 16:03:11;;;;;;;4.70;2.00;;;;;;;2.34;89.74;97701.45;220257;1274;25283;-73
2022/02/02 16:09:42;;;;;;;7.00;2.70;;;;;;;2.36;90.16;97721.13;220403;1274;22587;-73
2022/02/02 16:16:22;;;;;;;;;;;;;;;;;;;;;
2022/02/02 16:33:46;;;;;;;5.90;2.10;;;;;;;2.37;89.40;97765.58;220349;1274;24317;-74
2022/02/02 16:46:01;;;;;;;;;;;;;;;;;;;;;
2022/02/02 16:52:11;;;;;;;7.30;2.60;;;;;;;2.34;89.54;97786.61;220818;1274;22892;-72
2022/02/02 18:23:08;;;;;;;6.80;2.90;;;;;;;0.27;92.20;98051.23;220099;1274;22581;-74
2022/02/02 18:28:43;;;;;;;5.90;3.60;;;;;;;0.28;92.05;98057.30;220069;1274;22544;-74
2022/02/02 18:33:59;;;;;;;6.20;3.50;;;;;;;0.28;92.03;98065.95;220192;1276;22557;-74
2022/02/02 20:14:27;;;;;;;6.00;4.50;;;;;;;0.54;92.36;98281.17;220293;1274;22550;-72
2022/02/02 20:19:40;;;;;;;6.30;4.30;;;;;;;0.54;92.49;98290.34;216234;1274;5368434;-72
2022/02/02 20:25:02;;;;;;;7.00;4.30;;;;;;;0.54;92.36;98273.27;220088;1274;22569;-72
2022/02/02 20:30:07;;;;;;;7.40;4.30;;;;;;;0.54;92.29;98283.36;220164;1274;22656;-71
2022/02/02 20:35:09;;;;;;;7.30;4.50;;;;;;;0.52;91.95;98302.95;220220;1274;25382;-72
2022/02/02 20:40:23;;;;;;;7.70;4.70;;;;;;;0.52;92.10;98321.71;219981;1274;25261;-72
2022/02/02 21:07:19;;;;;;;8.50;4.60;;;;;;;0.47;92.32;98382.83;220005;1276;22640;-72
2022/02/02 21:17:43;;;;;;;5.50;3.50;;;;;;;0.27;92.14;98400.20;220156;1274;24701;-71
2022/02/02 21:22:51;;;;;;;5.40;3.70;;;;;;;0.19;92.15;98415.67;220188;1274;24283;-72
2022/02/02 21:27:57;;;;;;;7.50;4.70;;;;;;;0.13;92.34;98419.03;220069;1274;25578;-72
2022/02/02 21:33:17;;;;;;;5.50;3.50;;;;;;;0.10;92.44;98424.06;220077;1274;23062;-72
2022/02/02 21:38:29;;;;;;;8.10;3.70;;;;;;;0.08;92.60;98433.91;220138;1274;22484;-72
2022/02/02 21:43:33;;;;;;;3.90;2.70;;;;;;;0.07;92.93;98442.55;219950;1274;22614;-71
2022/02/02 21:48:35;;;;;;;3.20;2.10;;;;;;;0.08;93.04;98453.55;220061;1274;23450;-72
2022/02/02 21:54:06;;;;;;;3.70;2.50;;;;;;;0.05;93.11;98467.98;219933;1274;22564;-70
2022/02/02 21:59:46;;;;;;;4.10;2.90;;;;;;;0.01;93.30;98483.58;219867;1274;23736;-71
2022/02/02 22:04:57;;;;;;;3.20;2.40;;;;;;;-0.05;93.21;98495.34;219836;1274;22655;-71
2022/02/02 22:10:37;;;;;;;3.40;2.70;;;;;;;-0.11;92.94;98507.94;219980;1272;25573;-71
2022/02/02 22:15:55;;;;;;;5.40;3.20;;;;;;;-0.14;92.88;98512.08;220025;1274;22732;-71
2022/02/02 22:21:01;;;;;;;4.50;3.00;;;;;;;-0.17;92.90;98518.64;219953;1274;25382;-71
2022/02/02 22:26:17;;;;;;;5.60;2.80;;;;;;;-0.20;92.98;98528.32;219812;1276;22600;-71
2022/02/02 22:31:30;;;;;;;4.50;2.90;;;;;;;-0.21;92.91;98538.77;220088;1274;22544;-72
2022/02/02 22:36:32;;;;;;;7.70;4.20;;;;;;;-0.20;93.16;98541.69;219753;1276;24288;-71
2022/02/02 22:41:44;;;;;;;6.00;3.60;;;;;;;-0.20;92.80;98556.39;219964;1274;22556;-72
2022/02/02 22:46:49;;;;;;;5.20;3.20;;;;;;;-0.21;93.12;98567.05;220044;1274;22769;-72
2022/02/02 22:52:31;;;;;;;6.40;3.50;;;;;;;-0.21;92.79;98574.83;220021;1274;22593;-72
2022/02/02 22:57:53;;;;;;;;;;;;;;;-0.22;92.98;98580.39;219898;1274;24794;-72
2022/02/02 23:03:16;;;;;;;4.70;3.20;;;;;;;-0.23;93.06;98585.10;220158;1274;24311;-72
2022/02/02 23:08:41;;;;;;;3.70;2.70;;;;;;;-0.22;92.76;98579.70;220027;1274;22752;-72
2022/02/02 23:13:47;;;;;;;6.00;4.00;;;;;;;-0.21;92.87;98594.52;220246;1274;23296;-72
2022/02/02 23:19:22;;;;;;;7.90;4.00;;;;;;;-0.21;92.75;98600.38;220159;1275;26393;-72
2022/02/02 23:24:42;;;;;;;7.10;4.60;;;;;;;-0.19;92.78;98615.11;220090;1275;22710;-71
2022/02/02 23:30:12;;;;;;;6.40;3.90;;;;;;;-0.18;92.91;98622.45;220296;1274;22936;-72
2022/02/02 23:35:22;;;;;;;5.40;3.20;;;;;;;-0.16;92.74;98631.61;220175;1274;22790;-71
2022/02/02 23:46:25;;;;;;;5.10;3.10;;;;;;;-0.20;92.53;98647.69;220043;1274;24251;-72
2022/02/02 23:52:52;;;;;;;3.90;2.20;;;;;;;-0.26;92.26;98652.42;219859;1274;25458;-71
2022/02/02 23:58:34;;;;;;;6.00;2.80;;;;;;;-0.37;91.81;98665.86;219801;1274;22556;-72
